createdAt,value
2022-08-12T00:00:35.292Z,38.73
2022-08-12T00:03:20.791Z,67.87
2022-08-12T00:06:07.490Z,155.43
2022-08-12T00:08:53.357Z,108.63
2022-08-12T00:11:38.569Z,55.27
2022-08-12T00:14:25.242Z,345.17
2022-08-12T00:17:10.740Z,622.83
2022-08-12T00:19:55.530Z,145.77
2022-08-12T00:22:41.003Z,194.03
2022-08-12T00:26:18.967Z,436.57
2022-08-12T00:28:31.491Z,104.13
2022-08-12T00:31:17.909Z,49.03
2022-08-12T00:34:02.941Z,62.43
2022-08-12T00:36:50.587Z,38.90
2022-08-12T00:39:36.187Z,60.00
2022-08-12T00:42:11.700Z,66.53
2022-08-12T00:44:43.954Z,40.57
2022-08-12T00:47:24.861Z,47.03
2022-08-12T00:49:54.386Z,39.57
2022-08-12T00:52:22.288Z,196.40
2022-08-12T00:54:51.111Z,41.17
2022-08-12T00:57:19.444Z,100.80
2022-08-12T00:59:48.896Z,49.30
2022-08-12T01:02:24.534Z,56.57
2022-08-12T01:05:11.023Z,66.43
2022-08-12T01:07:56.729Z,48.63
2022-08-12T01:10:42.343Z,60.77
2022-08-12T01:13:19.102Z,180.13
2022-08-12T01:15:49.346Z,390.50
2022-08-12T01:18:18.818Z,636.80
2022-08-12T01:20:49.781Z,655.70
2022-08-12T01:23:42.063Z,498.70
2022-08-12T01:26:11.731Z,384.90
2022-08-12T01:28:39.985Z,580.27
2022-08-12T01:31:07.520Z,806.87
2022-08-12T01:33:38.322Z,786.83
2022-08-12T01:36:10.241Z,774.83
2022-08-12T01:38:39.161Z,351.17
2022-08-12T01:41:10.087Z,264.50
2022-08-12T01:43:40.223Z,59.07
2022-08-12T01:46:09.746Z,432.70
2022-08-12T01:49:01.282Z,241.10
2022-08-12T01:52:16.459Z,364.33
2022-08-12T01:54:29.923Z,142.10
2022-08-12T01:57:06.607Z,333.97
2022-08-12T01:59:50.844Z,464.37
2022-08-12T02:02:19.143Z,66.47
2022-08-12T02:05:22.012Z,52.27
2022-08-12T02:08:12.180Z,90.37
2022-08-12T02:11:03.571Z,50.30
2022-08-12T02:13:42.036Z,325.47
2022-08-12T02:16:24.123Z,261.97
2022-08-12T02:18:57.226Z,461.80
2022-08-12T02:21:27.089Z,229.27
2022-08-12T02:23:54.907Z,572.47
2022-08-12T02:26:23.886Z,258.90
2022-08-12T02:28:52.671Z,619.30
2022-08-12T02:31:21.635Z,967.43
2022-08-12T02:33:49.587Z,919.37
2022-08-12T02:36:17.427Z,848.60
2022-08-12T02:38:47.172Z,885.77
2022-08-12T02:41:17.166Z,661.47
2022-08-12T02:43:47.274Z,618.00
2022-08-12T02:46:16.850Z,371.17
2022-08-12T02:48:49.079Z,501.57
2022-08-12T02:51:19.428Z,950.47
2022-08-12T02:54:02.895Z,731.67
2022-08-12T02:56:34.078Z,346.73
2022-08-12T02:59:02.368Z,319.00
2022-08-12T03:01:33.893Z,281.33
2022-08-12T03:04:04.360Z,543.57
2022-08-12T03:06:35.185Z,804.13
2022-08-12T03:09:03.968Z,939.07
2022-08-12T03:11:41.690Z,1113.10
2022-08-12T03:14:11.906Z,1166.23
2022-08-12T03:16:40.502Z,1118.53
2022-08-12T03:19:09.997Z,1002.20
2022-08-12T03:21:54.680Z,1108.60
2022-08-12T03:24:27.472Z,981.40
2022-08-12T03:27:00.488Z,1113.33
2022-08-12T03:29:30.455Z,1357.27
2022-08-12T03:32:00.530Z,1157.73
2022-08-12T03:34:31.104Z,1124.83
2022-08-12T03:37:00.031Z,1148.83
2022-08-12T03:39:36.045Z,1302.30
2022-08-12T03:42:07.445Z,1375.23
2022-08-12T03:44:56.440Z,1349.20
2022-08-12T03:47:43.921Z,1044.20
2022-08-12T03:50:31.147Z,985.97
2022-08-12T03:53:16.159Z,1003.00
2022-08-12T03:56:01.303Z,961.30
2022-08-12T03:58:47.376Z,1051.03
2022-08-12T04:01:14.914Z,1066.73
2022-08-12T04:03:54.826Z,1156.77
2022-08-12T04:06:34.477Z,1103.87
2022-08-12T04:09:05.205Z,1092.03
2022-08-12T04:12:01.836Z,1076.53
2022-08-12T04:14:29.315Z,1660.63
2022-08-12T04:16:57.298Z,905.20
2022-08-12T04:19:26.431Z,685.83
2022-08-12T04:22:01.978Z,100.90
2022-08-12T04:24:31.961Z,28.23
2022-08-12T04:26:59.478Z,18.50
2022-08-12T04:30:16.535Z,17.90
2022-08-12T04:32:15.796Z,18.37
2022-08-12T04:34:44.554Z,18.97
2022-08-12T04:37:16.293Z,21.13
2022-08-12T04:39:45.134Z,30.40
2022-08-12T04:42:13.097Z,34.17
2022-08-12T04:44:42.310Z,30.53
2022-08-12T04:47:11.781Z,28.27
2022-08-12T04:49:40.938Z,22.87
2022-08-12T04:52:08.582Z,20.13
2022-08-12T04:54:37.754Z,24.43
2022-08-12T04:57:06.076Z,27.13
2022-08-12T04:59:48.116Z,30.03
2022-08-12T05:02:20.935Z,32.75
2022-08-12T05:04:50.385Z,30.52
2022-08-12T05:07:17.920Z,35.33
2022-08-12T05:09:58.709Z,53.33
2022-08-12T05:12:31.198Z,61.50
2022-08-12T05:14:59.279Z,60.17
2022-08-12T05:17:28.072Z,69.78
2022-08-12T05:19:57.308Z,76.18
2022-08-12T05:22:26.462Z,82.22
2022-08-12T05:24:55.434Z,66.45
2022-08-12T05:27:23.842Z,66.50
2022-08-12T05:30:05.701Z,76.95
2022-08-12T05:32:37.187Z,84.22
2022-08-12T05:35:06.762Z,93.75
2022-08-12T05:37:36.777Z,102.85
2022-08-12T05:40:10.939Z,114.60
2022-08-12T05:42:39.406Z,117.22
2022-08-12T05:45:07.942Z,120.82
2022-08-12T05:47:53.859Z,126.45
2022-08-12T05:50:22.025Z,134.10
2022-08-12T05:52:49.580Z,135.57
2022-08-12T05:55:25.854Z,141.50
2022-08-12T05:57:56.312Z,143.27
2022-08-12T06:00:25.796Z,140.57
2022-08-12T06:02:56.522Z,143.77
2022-08-12T06:05:24.245Z,141.43
2022-08-12T06:08:01.422Z,130.80
2022-08-12T06:10:33.083Z,124.70
2022-08-12T06:13:02.709Z,132.27
2022-08-12T06:15:30.676Z,121.32
2022-08-12T06:18:05.362Z,117.75
2022-08-12T06:20:41.896Z,116.93
2022-08-12T06:23:11.869Z,113.82
2022-08-12T06:25:42.138Z,108.85
2022-08-12T06:28:14.587Z,108.13
2022-08-12T06:30:42.363Z,101.55
2022-08-12T06:33:18.733Z,102.32
2022-08-12T06:35:50.370Z,108.50
2022-08-12T06:38:19.239Z,104.07
2022-08-12T06:41:06.486Z,95.72
2022-08-12T06:44:06.056Z,94.70
2022-08-12T06:46:22.785Z,87.45
2022-08-12T06:48:57.227Z,88.60
2022-08-12T06:51:25.308Z,87.60
2022-08-12T06:53:53.087Z,86.38
2022-08-12T06:56:30.474Z,85.40
2022-08-12T06:59:07.946Z,82.18
2022-08-12T07:01:37.850Z,84.85
2022-08-12T07:04:26.371Z,85.68
2022-08-12T07:06:55.956Z,84.88
2022-08-12T07:10:01.487Z,89.13
2022-08-12T07:12:17.071Z,94.93
2022-08-12T07:14:48.473Z,92.85
2022-08-12T07:17:16.809Z,90.28
2022-08-12T07:19:46.992Z,94.15
2022-08-12T07:22:16.703Z,97.38
2022-08-12T07:25:04.497Z,97.95
2022-08-12T07:27:38.687Z,100.80
2022-08-12T07:30:07.983Z,96.60
2022-08-12T07:32:35.936Z,97.05
2022-08-12T07:35:04.328Z,98.72
2022-08-12T07:37:35.248Z,99.85
2022-08-12T07:40:03.211Z,103.20
2022-08-12T07:42:31.238Z,103.65
2022-08-12T07:45:00.434Z,102.85
2022-08-12T07:47:28.201Z,107.78
2022-08-12T07:50:04.615Z,119.03
2022-08-12T07:52:34.182Z,117.22
2022-08-12T07:55:02.044Z,113.60
2022-08-12T07:57:29.832Z,121.57
2022-08-12T07:59:57.405Z,127.75
2022-08-12T08:02:26.877Z,119.30
2022-08-12T08:04:57.757Z,117.88
2022-08-12T08:07:27.679Z,104.72
2022-08-12T08:09:59.447Z,116.00
2022-08-12T08:12:45.004Z,100.50
2022-08-12T08:15:15.004Z,97.88
2022-08-12T08:17:57.922Z,101.03
2022-08-12T08:20:28.516Z,98.93
2022-08-12T08:22:57.437Z,94.03
2022-08-12T08:25:36.574Z,104.18
2022-08-12T08:28:06.085Z,93.97
2022-08-12T08:30:34.250Z,122.35
2022-08-12T08:33:17.289Z,90.95
2022-08-12T08:35:51.173Z,103.70
2022-08-12T08:38:32.039Z,118.38
2022-08-12T08:42:16.363Z,97.38
2022-08-12T08:44:06.891Z,85.15
2022-08-12T08:46:38.207Z,78.93
2022-08-12T08:49:07.797Z,653.50
2022-08-12T08:51:36.541Z,105.57
2022-08-12T08:54:04.350Z,76.90
2022-08-12T08:56:31.963Z,88.32
2022-08-12T08:58:59.962Z,75.15
2022-08-12T09:01:37.608Z,73.82
2022-08-12T09:05:07.198Z,109.45
2022-08-12T09:06:56.828Z,156.18
2022-08-12T09:09:28.332Z,83.38
2022-08-12T09:12:30.086Z,83.82
2022-08-12T09:14:58.440Z,120.07
2022-08-12T09:17:42.746Z,138.52
2022-08-12T09:20:19.156Z,120.25
2022-08-12T09:22:58.829Z,156.73
2022-08-12T09:25:27.431Z,78.15
2022-08-12T09:30:50.427Z,127.25
2022-08-12T09:34:24.736Z,78.40
2022-08-12T09:36:07.389Z,80.88
2022-08-12T09:38:36.941Z,83.35
2022-08-12T09:42:34.137Z,80.18
2022-08-12T09:44:37.952Z,82.47
2022-08-12T09:46:59.129Z,80.03
2022-08-12T09:49:28.085Z,102.63
2022-08-12T09:51:57.297Z,88.38
2022-08-12T09:54:31.496Z,115.18
2022-08-12T09:58:44.598Z,80.50
2022-08-12T10:00:15.758Z,85.95
2022-08-12T10:03:02.240Z,84.53
2022-08-12T10:06:20.138Z,91.85
2022-08-12T10:08:23.601Z,79.80
2022-08-12T10:11:20.008Z,78.55
2022-08-12T10:13:48.642Z,72.00
2022-08-12T10:16:18.577Z,100.25
2022-08-12T10:18:51.817Z,76.57
2022-08-12T10:21:21.448Z,71.68
2022-08-12T10:23:55.125Z,74.97
2022-08-12T10:26:42.425Z,67.50
2022-08-12T10:30:36.955Z,73.93
2022-08-12T10:32:44.430Z,76.25
2022-08-12T10:35:08.349Z,441.67
2022-08-12T10:38:34.892Z,73.95
2022-08-12T10:40:31.453Z,76.05
2022-08-12T10:43:17.604Z,77.85
2022-08-12T10:45:49.799Z,78.40
2022-08-12T10:48:33.362Z,73.03
2022-08-12T10:51:51.522Z,74.25
2022-08-12T10:54:00.819Z,75.72
2022-08-12T10:56:34.445Z,76.97
2022-08-12T10:59:03.201Z,75.85
2022-08-12T11:04:17.918Z,74.32
2022-08-12T11:04:35.880Z,71.97
2022-08-12T11:08:34.580Z,110.68
2022-08-12T11:09:59.671Z,66.00
2022-08-12T11:12:56.078Z,77.00
2022-08-12T11:15:24.341Z,69.28
2022-08-12T11:18:12.311Z,70.05
2022-08-12T11:20:48.212Z,67.50
2022-08-12T11:23:26.141Z,78.68
2022-08-12T11:26:06.252Z,70.90
2022-08-12T11:28:38.319Z,90.45
2022-08-12T11:31:07.114Z,73.88
2022-08-12T11:34:04.319Z,81.20
2022-08-12T11:36:26.164Z,81.55
2022-08-12T11:38:53.907Z,63.03
2022-08-12T11:41:31.435Z,81.10
2022-08-12T11:44:35.837Z,64.22
2022-08-12T11:46:51.293Z,68.07
2022-08-12T11:49:31.602Z,94.35
2022-08-12T11:52:00.307Z,67.82
2022-08-12T11:54:29.674Z,71.47
2022-08-12T11:56:59.388Z,70.00
2022-08-12T12:02:00.813Z,70.70
2022-08-12T12:02:20.622Z,228.15
2022-08-12T12:04:52.077Z,93.45
2022-08-12T12:07:22.195Z,75.15
2022-08-12T12:09:52.323Z,79.25
2022-08-12T12:12:21.495Z,88.22
2022-08-12T12:14:55.079Z,81.28
2022-08-12T12:17:24.079Z,75.68
2022-08-12T12:19:53.215Z,91.20
2022-08-12T12:22:23.377Z,73.25
2022-08-12T12:24:55.014Z,66.30
2022-08-12T12:28:03.694Z,113.13
2022-08-12T12:30:25.245Z,72.47
2022-08-12T12:32:57.519Z,70.47
2022-08-12T12:36:16.612Z,78.35
2022-08-12T12:38:13.916Z,319.77
2022-08-12T12:40:43.877Z,76.03
2022-08-12T12:43:12.771Z,115.13
2022-08-12T12:45:44.669Z,88.03
2022-08-12T12:48:45.276Z,74.25
2022-08-12T12:51:48.907Z,74.80
2022-08-12T12:54:09.892Z,74.88
2022-08-12T12:56:43.113Z,75.50
2022-08-12T12:59:33.815Z,82.45
2022-08-12T13:02:07.602Z,1666.43
2022-08-12T13:04:37.196Z,84.30
2022-08-12T13:07:06.634Z,74.68
2022-08-12T13:09:36.253Z,77.05
2022-08-12T13:12:05.244Z,80.60
2022-08-12T13:14:39.562Z,73.63
2022-08-12T13:17:09.845Z,69.20
2022-08-12T13:19:45.215Z,67.07
2022-08-12T13:22:20.484Z,61.15
2022-08-12T13:24:54.662Z,61.33
2022-08-12T13:27:28.428Z,63.08
2022-08-12T13:30:06.930Z,68.70
2022-08-12T13:32:41.083Z,77.80
2022-08-12T13:35:19.730Z,67.40
2022-08-12T13:38:02.441Z,62.13
2022-08-12T13:40:31.955Z,62.65
2022-08-12T13:43:01.993Z,69.88
2022-08-12T13:45:30.898Z,67.22
2022-08-12T13:48:01.789Z,72.32
2022-08-12T13:50:32.773Z,65.25
2022-08-12T13:53:23.218Z,67.22
2022-08-12T13:55:49.967Z,73.90
2022-08-12T13:58:30.112Z,89.07
2022-08-12T14:00:58.704Z,109.05
2022-08-12T14:03:50.196Z,70.35
2022-08-12T14:06:18.270Z,66.30
2022-08-12T14:08:49.740Z,61.78
2022-08-12T14:11:19.475Z,57.60
2022-08-12T14:14:03.612Z,55.50
2022-08-12T14:16:49.256Z,55.28
2022-08-12T14:19:24.250Z,54.90
2022-08-12T14:22:01.593Z,55.53
2022-08-12T14:24:35.875Z,55.33
2022-08-12T14:27:03.848Z,53.45
2022-08-12T14:30:05.350Z,54.97
2022-08-12T14:32:34.832Z,53.58
2022-08-12T14:35:09.204Z,55.60
2022-08-12T14:37:56.816Z,56.63
2022-08-12T14:40:27.796Z,66.80
2022-08-12T14:42:55.883Z,54.97
2022-08-12T14:45:44.411Z,60.63
2022-08-12T14:48:14.915Z,55.85
2022-08-12T14:51:02.717Z,63.33
2022-08-12T14:59:56.691Z,57.42
2022-08-12T15:02:23.694Z,65.55
2022-08-12T15:04:55.931Z,52.65
2022-08-12T15:07:33.747Z,52.85
2022-08-12T15:10:14.694Z,48.97
2022-08-12T15:12:53.350Z,53.75
2022-08-12T15:15:22.724Z,55.60
2022-08-12T15:17:59.326Z,60.40
2022-08-12T15:20:32.524Z,62.45
2022-08-12T15:23:17.698Z,66.82
2022-08-12T15:25:48.812Z,69.75
2022-08-12T15:28:21.606Z,68.80
2022-08-12T15:30:51.555Z,63.67
2022-08-12T15:33:21.055Z,59.90
2022-08-12T15:35:53.863Z,59.20
2022-08-12T15:38:25.192Z,56.17
2022-08-12T15:40:53.920Z,50.28
2022-08-12T15:44:15.858Z,49.13
2022-08-12T15:46:15.454Z,48.10
2022-08-12T15:48:47.029Z,48.85
2022-08-12T15:51:57.705Z,53.05
2022-08-12T15:54:33.914Z,53.45
2022-08-12T15:57:05.836Z,60.97
2022-08-12T16:00:00.351Z,51.60
2022-08-12T16:02:27.039Z,53.78
2022-08-12T16:04:57.139Z,55.20
2022-08-12T16:07:30.016Z,69.22
2022-08-12T16:10:05.537Z,52.40
2022-08-12T16:12:39.735Z,53.50
2022-08-12T16:15:08.493Z,49.97
2022-08-12T16:18:14.426Z,50.50
2022-08-12T16:20:33.055Z,49.40
2022-08-12T16:23:04.162Z,48.72
2022-08-12T16:26:02.644Z,49.80
2022-08-12T16:28:22.733Z,48.72
2022-08-12T16:30:56.313Z,51.38
2022-08-12T16:33:35.662Z,51.40
2022-08-12T16:36:06.404Z,72.07
2022-08-12T16:38:39.181Z,55.30
2022-08-12T16:41:08.753Z,56.03
2022-08-12T16:43:36.314Z,53.90
2022-08-12T16:46:32.503Z,53.55
2022-08-12T16:48:55.283Z,52.00
2022-08-12T16:51:25.619Z,72.13
2022-08-12T16:53:53.854Z,52.42
2022-08-12T16:56:23.859Z,50.40
2022-08-12T16:58:57.981Z,49.53
2022-08-12T17:01:26.107Z,48.05
2022-08-12T17:04:02.392Z,46.95
2022-08-12T17:06:30.957Z,44.75
2022-08-12T17:09:02.720Z,44.22
2022-08-12T17:11:32.407Z,45.35
2022-08-12T17:14:00.488Z,44.05
2022-08-12T17:16:29.995Z,44.28
2022-08-12T17:18:59.551Z,43.50
2022-08-12T17:21:41.157Z,44.25
2022-08-12T17:24:22.369Z,44.05
2022-08-12T17:26:59.595Z,42.40
2022-08-12T17:30:01.210Z,44.72
2022-08-12T17:32:15.148Z,41.67
2022-08-12T17:34:57.177Z,42.28
2022-08-12T17:37:24.777Z,40.83
2022-08-12T17:40:12.215Z,39.78
2022-08-12T17:42:47.255Z,38.60
2022-08-12T17:45:19.279Z,38.60
2022-08-12T17:48:01.715Z,39.17
2022-08-12T17:50:33.503Z,41.25
2022-08-12T17:53:02.939Z,40.15
2022-08-12T17:55:43.954Z,37.28
2022-08-12T17:58:17.154Z,36.10
2022-08-12T18:00:47.768Z,36.85
2022-08-12T18:04:05.270Z,38.10
2022-08-12T18:06:08.446Z,41.30
2022-08-12T18:08:53.673Z,39.08
2022-08-12T18:12:06.496Z,38.60
2022-08-12T18:14:30.303Z,38.75
2022-08-12T18:17:00.655Z,39.33
2022-08-12T18:20:04.013Z,43.85
2022-08-12T18:22:17.598Z,43.97
2022-08-12T18:24:50.492Z,46.05
2022-08-12T18:27:45.593Z,46.83
2022-08-12T18:30:28.953Z,43.88
2022-08-12T18:33:03.654Z,50.97
2022-08-12T18:35:52.949Z,45.08
2022-08-12T18:38:22.180Z,44.63
2022-08-12T18:41:09.996Z,44.35
2022-08-12T18:44:00.071Z,45.15
2022-08-12T18:46:32.390Z,44.75
2022-08-12T18:49:18.925Z,45.95
2022-08-12T18:51:55.199Z,42.83
2022-08-12T18:54:30.838Z,40.58
2022-08-12T18:57:02.282Z,38.38
2022-08-12T19:00:00.937Z,35.45
2022-08-12T19:02:23.366Z,30.50
2022-08-12T19:04:53.510Z,28.75
2022-08-12T19:07:22.587Z,26.20
2022-08-12T19:09:58.015Z,24.95
2022-08-12T19:12:56.857Z,24.80
2022-08-12T19:15:26.002Z,21.77
2022-08-12T19:18:00.714Z,22.77
2022-08-12T19:20:31.833Z,23.00
2022-08-12T19:23:07.185Z,22.63
2022-08-12T19:26:00.048Z,23.67
2022-08-12T19:28:30.014Z,22.95
2022-08-12T19:31:44.960Z,21.70
2022-08-12T19:37:14.938Z,24.10
2022-08-12T19:40:09.790Z,24.02
2022-08-12T19:42:48.263Z,25.23
2022-08-12T19:45:22.179Z,24.90
2022-08-12T19:47:50.255Z,26.02
2022-08-12T19:50:20.561Z,26.38
2022-08-12T19:52:50.978Z,26.90
2022-08-12T19:55:21.292Z,27.40
2022-08-12T19:58:01.441Z,28.85
2022-08-12T20:00:31.725Z,30.65
2022-08-12T20:03:03.034Z,30.60
2022-08-12T20:06:04.524Z,28.90
2022-08-12T20:08:32.882Z,28.93
2022-08-12T20:12:10.353Z,29.30
2022-08-12T20:14:00.351Z,28.67
2022-08-12T20:16:52.860Z,27.00
2022-08-12T20:19:16.394Z,26.73
2022-08-12T20:21:45.733Z,25.55
2022-08-12T20:24:14.527Z,25.73
2022-08-12T20:26:43.701Z,25.93
2022-08-12T20:29:11.864Z,35.20
2022-08-12T20:31:40.188Z,25.23
2022-08-12T20:34:12.024Z,23.63
2022-08-12T20:36:44.269Z,32.73
2022-08-12T20:39:37.356Z,42.97
2022-08-12T20:42:07.320Z,24.27
2022-08-12T20:44:39.652Z,23.90
2022-08-12T20:47:18.281Z,22.77
2022-08-12T20:49:55.294Z,22.17
2022-08-12T20:52:29.074Z,23.27
2022-08-12T20:54:59.678Z,23.83
2022-08-12T20:57:37.880Z,23.30
2022-08-12T21:00:09.170Z,23.48
2022-08-12T21:02:39.922Z,23.27
2022-08-12T21:05:26.112Z,23.70
2022-08-12T21:08:14.459Z,22.60
2022-08-12T21:10:43.998Z,22.40
2022-08-12T21:13:20.976Z,21.77
2022-08-12T21:15:54.817Z,21.17
2022-08-12T21:18:31.608Z,20.97
2022-08-12T21:20:59.842Z,21.00
2022-08-12T21:23:31.039Z,19.50
2022-08-12T21:26:11.323Z,19.40
2022-08-12T21:28:40.124Z,18.37
2022-08-12T21:32:37.509Z,18.03
2022-08-12T21:34:07.496Z,17.30
2022-08-12T21:36:37.825Z,18.60
2022-08-12T21:39:18.974Z,19.47
2022-08-12T21:41:51.395Z,17.63
2022-08-12T21:44:32.483Z,18.30
2022-08-12T21:47:12.098Z,17.37
2022-08-12T21:49:55.312Z,18.03
2022-08-12T21:52:28.302Z,18.47
2022-08-12T21:55:02.966Z,18.87
2022-08-12T21:57:36.431Z,18.50
2022-08-12T22:00:19.880Z,19.33
2022-08-12T22:03:05.385Z,18.47
2022-08-12T22:05:52.940Z,17.97
2022-08-12T22:08:22.370Z,18.97
2022-08-12T22:10:56.464Z,19.03
2022-08-12T22:14:04.305Z,17.87
2022-08-12T22:16:15.974Z,18.47
2022-08-12T22:18:50.480Z,18.73
2022-08-12T22:21:24.388Z,20.23
2022-08-12T22:24:05.258Z,21.40
2022-08-12T22:26:37.574Z,18.73
2022-08-12T22:29:26.774Z,19.53
2022-08-12T22:31:55.962Z,19.97
2022-08-12T22:34:29.459Z,18.97
2022-08-12T22:36:58.064Z,18.60
2022-08-12T22:39:26.711Z,18.80
2022-08-12T22:42:28.709Z,19.53
2022-08-12T22:45:23.111Z,20.63
2022-08-12T22:47:54.824Z,22.13
2022-08-12T22:50:27.428Z,24.30
2022-08-12T22:53:14.984Z,24.20
2022-08-12T22:56:00.544Z,25.93
2022-08-12T22:58:31.949Z,26.20
2022-08-12T23:01:02.193Z,28.50
2022-08-12T23:03:48.647Z,29.13
2022-08-12T23:06:19.341Z,32.83
2022-08-12T23:08:48.253Z,28.23
2022-08-12T23:11:16.208Z,31.57
2022-08-12T23:13:56.097Z,31.10
2022-08-12T23:16:31.766Z,31.43
2022-08-12T23:19:09.518Z,31.00
2022-08-12T23:22:05.526Z,28.77
2022-08-12T23:24:35.326Z,27.37
2022-08-12T23:27:20.584Z,25.83
2022-08-12T23:30:18.051Z,25.73
2022-08-12T23:32:38.743Z,23.30
2022-08-12T23:35:07.344Z,26.43
2022-08-12T23:37:47.006Z,24.93
2022-08-12T23:40:22.532Z,27.23
2022-08-12T23:42:54.200Z,27.20
2022-08-12T23:45:31.493Z,28.07
2022-08-12T23:48:03.513Z,39.03
2022-08-12T23:50:33.320Z,87.97
2022-08-12T23:53:03.364Z,49.37
2022-08-12T23:55:34.126Z,58.80
2022-08-12T23:58:20.725Z,136.53
